Time;durP1;ratioP1;P1;durP2;ratioP2;P2;SDS_P1;SDS_P2;PMS_P1;PMS_P2;Temp;Humidity;BMP_temperature;BMP_pressure;BME280_temperature;BME280_humidity;BME280_pressure;Samples;Min_cycle;Max_cycle;Signal;HPM_P1;HPM_P2
2021/07/24 00:00:08;;;;;;;;;;;17.90;99.90;;;;;;5095086;28;19981;-84
2021/07/24 00:02:35;;;;;;;;;;;17.80;99.90;;;;;;5095098;28;20252;-84
2021/07/24 00:05:02;;;;;;;;;;;17.90;99.90;;;;;;5095109;28;19920;-83
2021/07/24 00:07:31;;;;;;;;;;;17.80;99.90;;;;;;5094962;28;19920;-84
2021/07/24 00:09:57;;;;;;;;;;;17.80;99.90;;;;;;5094903;28;19920;-84
2021/07/24 00:12:24;;;;;;;;;;;17.80;99.90;;;;;;5095223;28;19920;-86
2021/07/24 00:14:52;;;;;;;;;;;17.80;99.90;;;;;;5095195;28;19930;-85
2021/07/24 00:17:18;;;;;;;;;;;17.80;99.90;;;;;;5095130;28;19975;-85
2021/07/24 00:19:45;;;;;;;;;;;17.70;99.90;;;;;;5095044;28;20009;-85
2021/07/24 00:22:12;;;;;;;;;;;17.70;99.90;;;;;;5094975;28;19931;-85
2021/07/24 00:24:40;;;;;;;;;;;17.70;99.90;;;;;;5094846;28;19934;-85
2021/07/24 00:27:07;;;;;;;;;;;17.70;99.90;;;;;;5094201;28;19920;-85
2021/07/24 00:29:34;;;;;;;;;;;17.70;99.90;;;;;;5094981;28;19926;-85
2021/07/24 00:32:01;;;;;;;;;;;17.60;99.90;;;;;;5094923;28;20276;-85
2021/07/24 00:34:28;;;;;;;;;;;17.60;99.90;;;;;;5094700;28;20367;-85
2021/07/24 00:36:57;;;;;;;;;;;17.50;99.90;;;;;;5094802;28;19920;-85
2021/07/24 00:39:24;;;;;;;;;;;17.50;99.90;;;;;;5094897;28;20007;-85
2021/07/24 00:41:52;;;;;;;;;;;17.60;99.90;;;;;;5094928;28;19920;-85
2021/07/24 00:44:21;;;;;;;;;;;17.50;99.90;;;;;;5094763;28;19920;-85
2021/07/24 00:46:48;;;;;;;;;;;15.80;99.90;;;;;;5093974;28;20380;-85
2021/07/24 00:49:15;;;;;;;;;;;17.50;99.90;;;;;;5094552;28;19920;-84
2021/07/24 00:51:44;;;;;;;;;;;17.40;99.90;;;;;;5094503;28;19930;-85
2021/07/24 00:54:11;;;;;;;;;;;17.40;99.90;;;;;;5095050;28;19920;-85
2021/07/24 00:56:38;;;;;;;;;;;17.30;99.90;;;;;;5098265;28;19924;-85
2021/07/24 00:59:07;;;;;;;;;;;17.30;99.90;;;;;;5098411;28;20268;-84
2021/07/24 01:01:36;;;;;;;;;;;17.30;99.90;;;;;;5098313;28;19920;-85
2021/07/24 01:04:03;;;;;;;;;;;17.30;99.90;;;;;;5098378;28;19974;-85
2021/07/24 01:06:31;;;;;;;;;;;17.30;99.90;;;;;;5098134;28;19930;-85
2021/07/24 01:08:58;;;;;;;;;;;17.20;99.90;;;;;;5098114;28;19931;-85
2021/07/24 01:11:25;;;;;;;;;;;17.30;99.90;;;;;;5098018;28;19920;-85
2021/07/24 01:13:52;;;;;;;;;;;17.20;99.90;;;;;;5098152;28;20393;-85
2021/07/24 01:16:20;;;;;;;;;;;17.20;99.90;;;;;;5098010;28;19996;-85
2021/07/24 01:18:47;;;;;;;;;;;17.20;99.90;;;;;;5097918;28;19930;-85
2021/07/24 01:21:14;;;;;;;;;;;17.20;99.90;;;;;;5097789;28;19930;-85
2021/07/24 01:23:42;;;;;;;;;;;17.20;99.90;;;;;;5097771;28;19920;-85
2021/07/24 01:26:09;;;;;;;;;;;17.20;99.90;;;;;;5097961;28;19924;-85
2021/07/24 01:28:36;;;;;;;;;;;17.20;99.90;;;;;;5097971;28;19920;-84
2021/07/24 01:31:03;;;;;;;;;;;17.20;99.90;;;;;;5097791;28;20260;-85
2021/07/24 01:33:32;;;;;;;;;;;17.20;99.90;;;;;;5097867;28;19930;-85
2021/07/24 01:35:59;;;;;;;;;;;17.20;99.90;;;;;;5097688;28;19924;-85
2021/07/24 01:38:26;;;;;;;;;;;17.20;99.90;;;;;;5097535;28;19920;-85
2021/07/24 01:40:54;;;;;;;;;;;17.10;99.90;;;;;;5097515;28;19924;-84
2021/07/24 01:43:21;;;;;;;;;;;17.10;99.90;;;;;;5097712;28;19920;-85
2021/07/24 01:45:48;;;;;;;;;;;17.10;99.90;;;;;;5097365;28;20357;-85
2021/07/24 01:48:18;;;;;;;;;;;17.10;99.90;;;;;;5097366;28;19927;-85
2021/07/24 01:53:30;;;;;;;;;;;17.00;99.90;;;;;;5097303;28;19977;-85
2021/07/24 01:56:00;;;;;;;;;;;17.00;99.90;;;;;;5097369;28;19920;-84
2021/07/24 01:58:29;;;;;;;;;;;17.10;99.90;;;;;;5097337;28;19928;-85
2021/07/24 02:00:56;;;;;;;;;;;17.00;99.90;;;;;;5096962;28;19924;-84
2021/07/24 02:03:22;;;;;;;;;;;17.00;99.90;;;;;;5096971;28;19924;-84
2021/07/24 02:05:49;;;;;;;;;;;16.90;99.90;;;;;;5097068;28;19924;-85
2021/07/24 02:08:18;;;;;;;;;;;16.90;99.90;;;;;;5097044;28;19920;-85
2021/07/24 02:10:45;;;;;;;;;;;16.80;99.90;;;;;;5096938;28;19920;-84
2021/07/24 02:13:13;;;;;;;;;;;16.80;99.90;;;;;;5096973;28;20369;-85
2021/07/24 02:15:40;;;;;;;;;;;16.80;99.90;;;;;;5096851;28;19934;-85
2021/07/24 02:18:07;;;;;;;;;;;16.80;99.90;;;;;;5097044;28;19926;-85
2021/07/24 02:20:33;;;;;;;;;;;16.70;99.90;;;;;;5097000;28;19926;-85
2021/07/24 02:23:01;;;;;;;;;;;16.70;99.90;;;;;;5096899;28;20264;-85
2021/07/24 02:25:28;;;;;;;;;;;16.70;99.90;;;;;;5096719;28;19919;-85
2021/07/24 02:27:54;;;;;;;;;;;16.60;99.90;;;;;;5096579;28;19920;-85
2021/07/24 02:30:23;;;;;;;;;;;16.60;99.90;;;;;;5096466;28;20256;-85
2021/07/24 02:32:49;;;;;;;;;;;16.60;99.90;;;;;;5096410;28;19923;-85
2021/07/24 02:35:16;;;;;;;;;;;16.60;99.90;;;;;;5096771;28;19920;-85
2021/07/24 02:37:43;;;;;;;;;;;16.50;99.90;;;;;;5096503;28;19920;-85
2021/07/24 02:40:10;;;;;;;;;;;16.50;99.90;;;;;;5096395;28;20367;-84
2021/07/24 02:42:37;;;;;;;;;;;16.50;99.90;;;;;;5096214;28;19920;-75
2021/07/24 02:45:04;;;;;;;;;;;16.50;99.90;;;;;;5096469;28;19926;-75
2021/07/24 02:47:32;;;;;;;;;;;16.50;99.90;;;;;;5096185;28;19920;-75
2021/07/24 02:49:59;;;;;;;;;;;16.50;99.90;;;;;;5096349;28;19924;-74
2021/07/24 02:52:26;;;;;;;;;;;16.50;99.90;;;;;;5096023;28;19927;-75
2021/07/24 02:54:53;;;;;;;;;;;16.50;99.90;;;;;;5096242;28;19924;-75
2021/07/24 02:57:20;;;;;;;;;;;16.50;99.90;;;;;;5095955;28;19934;-73
2021/07/24 02:59:47;;;;;;;;;;;16.50;99.90;;;;;;5096219;28;19920;-75
2021/07/24 03:02:14;;;;;;;;;;;16.50;99.90;;;;;;5095908;28;20299;-75
2021/07/24 03:04:42;;;;;;;;;;;16.50;99.90;;;;;;5095958;28;19930;-75
2021/07/24 03:07:09;;;;;;;;;;;16.50;99.90;;;;;;5095673;28;19927;-76
2021/07/24 03:09:36;;;;;;;;;;;16.50;99.90;;;;;;5095896;28;19930;-75
2021/07/24 03:12:03;;;;;;;;;;;16.50;99.90;;;;;;5095795;28;19920;-75
2021/07/24 03:14:31;;;;;;;;;;;16.40;99.90;;;;;;5095239;28;20205;-75
2021/07/24 03:16:58;;;;;;;;;;;16.40;99.90;;;;;;5095366;28;19932;-75
2021/07/24 03:19:25;;;;;;;;;;;16.40;99.90;;;;;;5095838;28;20032;-75
2021/07/24 03:21:53;;;;;;;;;;;16.40;99.90;;;;;;5095783;28;20227;-75
2021/07/24 03:24:20;;;;;;;;;;;16.40;99.90;;;;;;5095433;28;19928;-75
2021/07/24 03:26:47;;;;;;;;;;;16.40;99.90;;;;;;5095617;28;19924;-75
2021/07/24 03:29:14;;;;;;;;;;;16.40;99.90;;;;;;5095637;28;19924;-75
2021/07/24 03:31:40;;;;;;;;;;;16.40;99.90;;;;;;5095557;28;19935;-75
2021/07/24 03:34:07;;;;;;;;;;;16.40;99.90;;;;;;5095458;28;19924;-75
2021/07/24 03:36:34;;;;;;;;;;;16.40;99.90;;;;;;5095588;28;19924;-75
2021/07/24 03:39:02;;;;;;;;;;;16.30;99.90;;;;;;5095398;28;20265;-75
2021/07/24 03:41:29;;;;;;;;;;;16.30;99.90;;;;;;5095348;28;20011;-75
2021/07/24 03:43:56;;;;;;;;;;;16.20;99.90;;;;;;5095173;28;19930;-75
2021/07/24 03:46:25;;;;;;;;;;;16.20;99.90;;;;;;5095337;28;19938;-74
2021/07/24 03:48:52;;;;;;;;;;;16.20;99.90;;;;;;5095227;28;19932;-74
2021/07/24 03:51:19;;;;;;;;;;;16.20;99.90;;;;;;5095065;28;20361;-75
2021/07/24 03:53:46;;;;;;;;;;;16.20;99.90;;;;;;5094957;28;19924;-75
2021/07/24 03:56:18;;;;;;;;;;;16.30;99.90;;;;;;5095317;28;19924;-75
2021/07/24 03:58:45;;;;;;;;;;;16.20;99.90;;;;;;5095295;28;19935;-75
2021/07/24 04:01:12;;;;;;;;;;;16.20;99.90;;;;;;5095002;28;20362;-75
2021/07/24 04:03:39;;;;;;;;;;;16.20;99.90;;;;;;5095223;28;20018;-76
2021/07/24 04:06:07;;;;;;;;;;;16.20;99.90;;;;;;5095100;28;19924;-75
2021/07/24 04:08:33;;;;;;;;;;;16.20;99.90;;;;;;5094911;28;19947;-75
2021/07/24 04:11:00;;;;;;;;;;;16.10;99.90;;;;;;5094954;28;19939;-75
2021/07/24 04:13:29;;;;;;;;;;;16.10;99.90;;;;;;5095267;28;19924;-75
2021/07/24 04:15:55;;;;;;;;;;;16.10;99.90;;;;;;5095192;28;19935;-75
2021/07/24 04:18:25;;;;;;;;;;;16.10;99.90;;;;;;5094854;28;20367;-75
2021/07/24 04:20:52;;;;;;;;;;;16.10;99.90;;;;;;5094797;28;19924;-75
2021/07/24 04:23:19;;;;;;;;;;;16.10;99.90;;;;;;5094923;28;19939;-75
2021/07/24 04:25:45;;;;;;;;;;;16.10;99.90;;;;;;5095058;28;19925;-75
2021/07/24 04:28:12;;;;;;;;;;;16.10;99.90;;;;;;5094884;28;20260;-75
2021/07/24 04:30:40;;;;;;;;;;;16.00;99.90;;;;;;5097615;28;19924;-75
2021/07/24 04:33:07;;;;;;;;;;;16.00;99.90;;;;;;5098669;28;19924;-75
2021/07/24 04:35:34;;;;;;;;;;;16.00;99.90;;;;;;5098760;28;19924;-75
2021/07/24 04:38:01;;;;;;;;;;;16.00;99.90;;;;;;5098904;28;19934;-75
2021/07/24 04:40:28;;;;;;;;;;;16.00;99.90;;;;;;5098872;28;19934;-75
2021/07/24 04:42:55;;;;;;;;;;;16.00;99.90;;;;;;5098758;28;20254;-75
2021/07/24 04:45:21;;;;;;;;;;;16.00;99.90;;;;;;5098550;28;20371;-75
2021/07/24 04:47:50;;;;;;;;;;;16.00;99.90;;;;;;5098588;28;20342;-75
2021/07/24 04:50:17;;;;;;;;;;;16.00;99.90;;;;;;5098573;28;20375;-75
2021/07/24 04:52:44;;;;;;;;;;;16.00;99.90;;;;;;5098290;28;19931;-71
2021/07/24 04:55:11;;;;;;;;;;;16.00;99.90;;;;;;5098570;28;19928;-71
2021/07/24 04:57:38;;;;;;;;;;;16.10;99.90;;;;;;5098270;28;19924;-70
2021/07/24 05:00:06;;;;;;;;;;;16.10;99.90;;;;;;5098263;28;19934;-71
2021/07/24 05:02:33;;;;;;;;;;;16.10;99.90;;;;;;5098135;28;19924;-71
2021/07/24 05:05:01;;;;;;;;;;;16.10;99.90;;;;;;5098520;28;19945;-71
2021/07/24 05:07:29;;;;;;;;;;;16.10;99.90;;;;;;5098369;28;20273;-71
2021/07/24 05:09:56;;;;;;;;;;;16.20;99.90;;;;;;5097981;28;19924;-71
2021/07/24 05:12:22;;;;;;;;;;;16.20;99.90;;;;;;5097897;28;19928;-71
2021/07/24 05:14:49;;;;;;;;;;;16.30;99.90;;;;;;5097917;28;19934;-71
2021/07/24 05:17:16;;;;;;;;;;;16.30;99.90;;;;;;5097983;28;19923;-70
2021/07/24 05:19:43;;;;;;;;;;;16.40;99.90;;;;;;5097810;28;19924;-71
2021/07/24 05:22:12;;;;;;;;;;;16.40;99.90;;;;;;5097805;28;19935;-71
2021/07/24 05:24:38;;;;;;;;;;;16.40;99.90;;;;;;5097731;28;20369;-71
2021/07/24 05:27:05;;;;;;;;;;;16.50;99.90;;;;;;5097739;28;20269;-71
2021/07/24 05:29:33;;;;;;;;;;;16.50;99.90;;;;;;5097711;28;19934;-71
2021/07/24 05:31:59;;;;;;;;;;;16.60;99.90;;;;;;5097583;28;19935;-71
2021/07/24 05:34:26;;;;;;;;;;;16.60;99.90;;;;;;5097901;28;19924;-70
2021/07/24 05:36:53;;;;;;;;;;;16.60;99.90;;;;;;5097694;28;19934;-71
2021/07/24 05:39:21;;;;;;;;;;;16.60;99.90;;;;;;5097590;28;19950;-71
2021/07/24 05:41:48;;;;;;;;;;;16.70;99.90;;;;;;5097007;28;19924;-71
2021/07/24 05:44:18;;;;;;;;;;;16.70;99.90;;;;;;5097364;28;19924;-71
2021/07/24 05:46:45;;;;;;;;;;;16.70;99.90;;;;;;5097294;28;20417;-71
2021/07/24 05:49:11;;;;;;;;;;;16.80;99.90;;;;;;5097342;28;20346;-71
2021/07/24 05:51:39;;;;;;;;;;;16.80;99.90;;;;;;5096983;28;19934;-71
2021/07/24 05:54:07;;;;;;;;;;;16.80;99.90;;;;;;5097351;28;20261;-71
2021/07/24 05:56:36;;;;;;;;;;;16.80;99.90;;;;;;5097210;28;20355;-71
2021/07/24 05:59:02;;;;;;;;;;;16.80;99.90;;;;;;5097092;28;19924;-70
2021/07/24 06:01:29;;;;;;;;;;;16.80;99.90;;;;;;5097085;28;19931;-76
2021/07/24 06:03:56;;;;;;;;;;;16.80;99.90;;;;;;5096979;28;19924;-75
2021/07/24 06:06:23;;;;;;;;;;;16.80;99.90;;;;;;5097269;28;19928;-76
2021/07/24 06:08:50;;;;;;;;;;;16.80;99.90;;;;;;5096902;28;19924;-75
2021/07/24 06:11:17;;;;;;;;;;;16.80;99.90;;;;;;5096009;28;19935;-75
2021/07/24 06:13:45;;;;;;;;;;;16.80;99.90;;;;;;5096880;28;19924;-75
2021/07/24 06:16:12;;;;;;;;;;;16.80;99.90;;;;;;5096789;28;19932;-75
2021/07/24 06:18:38;;;;;;;;;;;16.80;99.90;;;;;;5096808;28;19960;-75
2021/07/24 06:21:05;;;;;;;;;;;16.90;99.90;;;;;;5096777;28;19923;-75
2021/07/24 06:23:32;;;;;;;;;;;16.90;99.90;;;;;;5096796;28;19924;-75
2021/07/24 06:26:01;;;;;;;;;;;16.80;99.90;;;;;;5096786;28;19924;-75
2021/07/24 06:28:28;;;;;;;;;;;16.80;99.90;;;;;;5096707;28;19924;-75
2021/07/24 06:30:57;;;;;;;;;;;16.80;99.90;;;;;;5096707;28;19932;-75
2021/07/24 06:33:23;;;;;;;;;;;16.70;99.90;;;;;;5096423;28;20341;-75
2021/07/24 06:35:50;;;;;;;;;;;16.70;99.90;;;;;;5096447;28;19934;-75
2021/07/24 06:38:17;;;;;;;;;;;16.60;99.90;;;;;;5096360;28;19924;-75
2021/07/24 06:40:44;;;;;;;;;;;16.60;99.90;;;;;;5096379;28;19924;-75
2021/07/24 06:43:11;;;;;;;;;;;16.60;99.90;;;;;;5096214;28;19935;-75
2021/07/24 06:45:38;;;;;;;;;;;16.60;99.90;;;;;;5104651;28;19924;-75
2021/07/24 06:48:07;;;;;;;;;;;16.60;99.90;;;;;;5098516;28;19996;-75
2021/07/24 06:50:33;;;;;;;;;;;16.60;99.90;;;;;;5096193;28;20361;-75
2021/07/24 06:53:00;;;;;;;;;;;16.70;99.90;;;;;;5095088;28;19930;-75
2021/07/24 06:55:27;;;;;;;;;;;16.60;99.90;;;;;;5096044;28;19924;-75
2021/07/24 06:57:55;;;;;;;;;;;16.60;99.90;;;;;;5096095;28;19931;-75
2021/07/24 07:00:22;;;;;;;;;;;16.70;99.90;;;;;;5096006;28;19935;-75
2021/07/24 07:02:49;;;;;;;;;;;16.70;99.90;;;;;;5095950;28;20391;-75
2021/07/24 07:05:17;;;;;;;;;;;16.70;99.90;;;;;;5094806;28;19930;-75
2021/07/24 07:07:44;;;;;;;;;;;16.70;99.90;;;;;;5095810;28;20345;-75
2021/07/24 07:10:11;;;;;;;;;;;16.70;99.90;;;;;;5095569;28;19928;-75
2021/07/24 07:12:38;;;;;;;;;;;16.80;99.90;;;;;;5095077;28;19928;-75
2021/07/24 07:15:08;;;;;;;;;;;16.80;99.90;;;;;;5095936;28;19924;-75
2021/07/24 07:17:35;;;;;;;;;;;16.90;99.90;;;;;;5095615;28;19932;-77
2021/07/24 07:20:02;;;;;;;;;;;16.90;99.90;;;;;;5095781;28;19935;-76
2021/07/24 07:22:30;;;;;;;;;;;16.90;99.90;;;;;;5095684;28;19924;-75
2021/07/24 07:24:57;;;;;;;;;;;17.00;99.90;;;;;;5095516;28;20371;-75
2021/07/24 07:27:24;;;;;;;;;;;17.00;99.90;;;;;;5095461;28;20349;-75
2021/07/24 07:29:51;;;;;;;;;;;17.00;99.90;;;;;;5095549;28;19934;-75
2021/07/24 07:32:18;;;;;;;;;;;16.90;99.90;;;;;;5095489;28;19985;-75
2021/07/24 07:34:44;;;;;;;;;;;16.90;99.90;;;;;;5095352;28;19924;-75
2021/07/24 07:37:11;;;;;;;;;;;16.90;99.90;;;;;;5095415;28;19950;-75
2021/07/24 07:39:39;;;;;;;;;;;16.80;99.90;;;;;;5095230;28;20265;-75
2021/07/24 07:42:06;;;;;;;;;;;16.80;99.90;;;;;;5095356;28;19935;-75
2021/07/24 07:44:33;;;;;;;;;;;16.80;99.90;;;;;;5095532;28;19950;-75
2021/07/24 07:47:00;;;;;;;;;;;16.80;99.90;;;;;;5095473;28;20300;-75
2021/07/24 07:49:27;;;;;;;;;;;16.90;99.90;;;;;;5095247;28;19924;-75
2021/07/24 07:51:54;;;;;;;;;;;16.90;99.90;;;;;;5094884;28;19924;-76
2021/07/24 07:54:20;;;;;;;;;;;16.90;99.90;;;;;;5095250;28;19924;-75
2021/07/24 07:56:49;;;;;;;;;;;17.00;99.90;;;;;;5095263;28;19924;-75
2021/07/24 07:59:16;;;;;;;;;;;17.10;99.90;;;;;;5095041;28;19935;-75
2021/07/24 08:01:42;;;;;;;;;;;17.20;99.90;;;;;;5095290;28;19938;-75
2021/07/24 08:04:09;;;;;;;;;;;17.20;99.90;;;;;;5098946;28;19924;-75
2021/07/24 08:06:36;;;;;;;;;;;17.30;99.90;;;;;;5101945;28;20272;-76
2021/07/24 08:09:03;;;;;;;;;;;17.30;99.90;;;;;;5101736;28;20489;-76
2021/07/24 08:11:30;;;;;;;;;;;17.30;99.90;;;;;;5101840;28;19924;-76
2021/07/24 08:13:58;;;;;;;;;;;17.30;99.90;;;;;;5101688;28;19934;-75
2021/07/24 08:16:25;;;;;;;;;;;17.20;99.90;;;;;;5101839;28;19924;-76
2021/07/24 08:18:52;;;;;;;;;;;17.20;99.90;;;;;;5101751;28;19950;-75
2021/07/24 08:21:18;;;;;;;;;;;17.20;99.90;;;;;;5101571;28;20349;-75
2021/07/24 08:23:45;;;;;;;;;;;17.10;99.90;;;;;;5101654;28;19934;-75
2021/07/24 08:26:12;;;;;;;;;;;17.00;99.90;;;;;;5101570;28;19924;-75
2021/07/24 08:28:39;;;;;;;;;;;17.10;99.90;;;;;;5101705;28;19927;-75
2021/07/24 08:31:07;;;;;;;;;;;17.10;99.90;;;;;;5101646;28;19934;-75
2021/07/24 08:33:35;;;;;;;;;;;17.10;99.90;;;;;;5101588;28;20364;-75
2021/07/24 08:36:02;;;;;;;;;;;17.20;99.90;;;;;;5101636;28;19934;-75
2021/07/24 08:38:28;;;;;;;;;;;17.20;99.90;;;;;;5101776;28;19950;-75
2021/07/24 08:40:55;;;;;;;;;;;17.20;99.90;;;;;;5101426;28;20350;-75
2021/07/24 08:43:22;;;;;;;;;;;17.30;99.90;;;;;;5101501;28;20354;-75
2021/07/24 08:45:49;;;;;;;;;;;17.30;99.90;;;;;;5101381;28;19924;-75
2021/07/24 08:48:17;;;;;;;;;;;17.30;99.90;;;;;;5101375;28;19930;-75
2021/07/24 08:50:45;;;;;;;;;;;17.40;99.90;;;;;;5101486;28;19928;-75
2021/07/24 08:53:11;;;;;;;;;;;17.50;99.90;;;;;;5101142;28;19924;-75
2021/07/24 08:55:41;;;;;;;;;;;17.50;99.90;;;;;;5101604;28;19946;-75
2021/07/24 08:58:10;;;;;;;;;;;17.50;99.90;;;;;;5101564;28;20315;-75
2021/07/24 09:00:36;;;;;;;;;;;17.60;99.90;;;;;;5101218;28;20254;-75
2021/07/24 09:03:03;;;;;;;;;;;17.60;99.90;;;;;;5101196;28;19930;-75
2021/07/24 09:05:32;;;;;;;;;;;17.70;99.90;;;;;;5101437;28;19924;-75
2021/07/24 09:07:59;;;;;;;;;;;17.80;99.90;;;;;;5101529;28;19924;-75
2021/07/24 09:10:25;;;;;;;;;;;17.90;99.90;;;;;;5101276;28;19934;-76
2021/07/24 09:12:53;;;;;;;;;;;18.00;99.90;;;;;;5101283;28;19928;-75
2021/07/24 09:15:20;;;;;;;;;;;18.00;99.90;;;;;;5099214;28;19924;-75
2021/07/24 09:17:47;;;;;;;;;;;18.00;99.90;;;;;;5098074;28;19924;-75
2021/07/24 09:20:14;;;;;;;;;;;18.00;99.90;;;;;;5098128;28;19924;-75
2021/07/24 09:22:42;;;;;;;;;;;18.00;99.90;;;;;;5098098;28;20250;-75
2021/07/24 09:25:10;;;;;;;;;;;18.20;99.90;;;;;;5097774;28;19931;-76
2021/07/24 09:27:37;;;;;;;;;;;18.30;99.90;;;;;;5097867;28;20380;-75
2021/07/24 09:30:04;;;;;;;;;;;18.60;99.90;;;;;;5097778;28;20300;-76
2021/07/24 09:32:31;;;;;;;;;;;18.80;99.90;;;;;;5097746;28;19924;-76
2021/07/24 09:34:58;;;;;;;;;;;18.90;99.90;;;;;;5098008;28;19934;-76
2021/07/24 09:37:26;;;;;;;;;;;18.80;99.90;;;;;;5097873;28;19924;-76
2021/07/24 09:39:55;;;;;;;;;;;18.70;99.90;;;;;;5097990;28;19924;-76
2021/07/24 09:42:22;;;;;;;;;;;18.70;99.90;;;;;;5097568;28;19924;-75
2021/07/24 09:45:00;;;;;;;;;;;18.70;99.90;;;;;;5097506;28;19934;-76
2021/07/24 09:47:28;;;;;;;;;;;18.60;99.90;;;;;;5097173;28;19934;-75
2021/07/24 09:49:54;;;;;;;;;;;18.60;99.90;;;;;;5097553;28;19938;-74
2021/07/24 09:52:21;;;;;;;;;;;18.70;99.90;;;;;;5097175;28;20250;-74
2021/07/24 09:54:48;;;;;;;;;;;18.70;99.90;;;;;;5097350;28;19924;-74
2021/07/24 09:57:30;;;;;;;;;;;18.70;99.90;;;;;;5097324;28;19924;-74
2021/07/24 09:59:58;;;;;;;;;;;18.60;99.90;;;;;;5097026;28;20271;-74
2021/07/24 10:02:30;;;;;;;;;;;18.60;99.90;;;;;;5097126;28;19924;-74
2021/07/24 10:04:57;;;;;;;;;;;18.40;99.90;;;;;;5097187;28;19924;-74
2021/07/24 10:07:23;;;;;;;;;;;18.30;99.90;;;;;;5096951;28;20265;-74
2021/07/24 10:09:50;;;;;;;;;;;18.30;99.90;;;;;;5096887;28;19924;-74
2021/07/24 10:12:17;;;;;;;;;;;18.40;99.90;;;;;;5096905;28;19931;-74
2021/07/24 10:14:44;;;;;;;;;;;18.40;99.90;;;;;;5096856;28;19928;-74
2021/07/24 10:17:13;;;;;;;;;;;18.40;99.90;;;;;;5096861;28;19971;-74
2021/07/24 10:19:40;;;;;;;;;;;18.60;99.90;;;;;;5096894;28;19924;-74
2021/07/24 10:22:07;;;;;;;;;;;18.60;99.90;;;;;;5096847;28;19924;-74
2021/07/24 10:24:33;;;;;;;;;;;18.70;99.90;;;;;;5096628;28;19935;-74
2021/07/24 10:27:02;;;;;;;;;;;18.70;99.90;;;;;;5095434;28;19924;-74
2021/07/24 10:29:29;;;;;;;;;;;18.70;99.90;;;;;;5096632;28;20242;-74
2021/07/24 10:32:04;;;;;;;;;;;18.80;99.90;;;;;;5096787;28;19934;-74
2021/07/24 10:34:33;;;;;;;;;;;18.90;99.90;;;;;;5096526;28;20261;-74
2021/07/24 10:37:00;;;;;;;;;;;18.80;99.90;;;;;;5096485;28;19924;-74
2021/07/24 10:39:27;;;;;;;;;;;18.60;99.90;;;;;;5096341;28;19934;-75
2021/07/24 10:41:53;;;;;;;;;;;18.60;99.90;;;;;;5097052;28;19931;-74
2021/07/24 10:44:36;;;;;;;;;;;18.60;99.90;;;;;;5116684;28;20360;-74
2021/07/24 10:47:18;;;;;;;;;;;18.60;99.90;;;;;;5116647;28;19931;-74
2021/07/24 10:49:59;;;;;;;;;;;18.70;99.90;;;;;;5116863;28;20295;-74
2021/07/24 10:52:25;;;;;;;;;;;18.70;99.90;;;;;;5116205;28;19927;-74
2021/07/24 10:55:12;;;;;;;;;;;18.60;99.90;;;;;;5116450;28;19937;-74
2021/07/24 10:57:59;;;;;;;;;;;18.60;99.90;;;;;;5116471;28;19935;-74
2021/07/24 11:00:32;;;;;;;;;;;18.50;99.90;;;;;;5116390;28;20334;-74
2021/07/24 11:02:59;;;;;;;;;;;18.50;99.90;;;;;;5116391;28;19930;-75
2021/07/24 11:05:28;;;;;;;;;;;18.60;99.90;;;;;;5116187;28;20418;-74
2021/07/24 11:07:55;;;;;;;;;;;18.50;99.90;;;;;;5116131;28;20388;-73
2021/07/24 11:10:22;;;;;;;;;;;18.40;99.90;;;;;;5116230;28;19923;-74
2021/07/24 11:12:49;;;;;;;;;;;18.50;99.90;;;;;;5116078;28;19934;-74
2021/07/24 11:15:17;;;;;;;;;;;18.60;99.90;;;;;;5116299;28;19934;-74
2021/07/24 11:17:44;;;;;;;;;;;18.60;99.90;;;;;;5116172;28;19934;-74
2021/07/24 11:20:33;;;;;;;;;;;18.70;99.90;;;;;;5116117;28;19924;-74
2021/07/24 11:23:04;;;;;;;;;;;18.80;99.90;;;;;;5116044;28;20026;-74
2021/07/24 11:25:31;;;;;;;;;;;18.90;99.90;;;;;;5115902;28;19928;-74
2021/07/24 11:27:58;;;;;;;;;;;19.00;99.90;;;;;;5115842;28;19984;-74
2021/07/24 11:30:26;;;;;;;;;;;19.10;99.90;;;;;;5115730;28;19928;-74
2021/07/24 11:32:54;;;;;;;;;;;19.20;99.90;;;;;;5115773;28;19931;-74
2021/07/24 11:35:21;;;;;;;;;;;19.30;99.90;;;;;;5115804;28;19923;-74
2021/07/24 11:37:49;;;;;;;;;;;19.40;99.90;;;;;;5115577;28;19934;-74
2021/07/24 11:40:17;;;;;;;;;;;19.40;99.90;;;;;;5115734;28;19924;-74
2021/07/24 11:42:44;;;;;;;;;;;19.40;99.90;;;;;;5115576;28;19930;-74
2021/07/24 11:45:15;;;;;;;;;;;19.40;99.90;;;;;;5115813;28;19924;-74
2021/07/24 11:47:42;;;;;;;;;;;19.40;99.90;;;;;;5115162;28;19924;-74
2021/07/24 11:50:17;;;;;;;;;;;19.40;99.90;;;;;;5115744;28;19934;-74
2021/07/24 11:52:48;;;;;;;;;;;19.40;99.90;;;;;;5115278;28;19924;-74
2021/07/24 11:55:26;;;;;;;;;;;19.30;99.90;;;;;;5115665;28;19923;-75
2021/07/24 11:57:59;;;;;;;;;;;19.30;99.90;;;;;;5115698;28;19950;-73
2021/07/24 12:00:29;;;;;;;;;;;19.30;99.90;;;;;;5115538;28;19924;-74
2021/07/24 12:03:10;;;;;;;;;;;19.30;99.90;;;;;;5115475;28;20253;-74
2021/07/24 12:05:36;;;;;;;;;;;19.30;99.90;;;;;;5115663;28;19938;-74
2021/07/24 12:08:04;;;;;;;;;;;19.30;99.90;;;;;;5115492;28;19924;-74
2021/07/24 12:10:32;;;;;;;;;;;19.30;99.90;;;;;;5114480;28;19924;-74
2021/07/24 12:12:59;;;;;;;;;;;19.30;99.90;;;;;;5115024;28;20018;-74
2021/07/24 12:15:25;;;;;;;;;;;19.40;99.90;;;;;;5115175;28;19930;-74
2021/07/24 12:17:52;;;;;;;;;;;19.40;99.90;;;;;;5115356;28;19928;-74
2021/07/24 12:20:22;;;;;;;;;;;19.50;99.90;;;;;;5115176;28;20345;-74
2021/07/24 12:22:49;;;;;;;;;;;19.60;99.90;;;;;;5115288;28;19946;-74
2021/07/24 12:25:16;;;;;;;;;;;19.60;99.90;;;;;;5115413;28;20244;-74
2021/07/24 12:27:49;;;;;;;;;;;19.50;99.90;;;;;;5115080;28;19924;-74
2021/07/24 12:30:26;;;;;;;;;;;19.50;99.90;;;;;;5114982;28;19924;-74
2021/07/24 12:32:53;;;;;;;;;;;19.60;99.90;;;;;;5115114;28;19934;-72
2021/07/24 12:35:21;;;;;;;;;;;19.60;99.90;;;;;;5115144;28;19949;-73
2021/07/24 12:37:48;;;;;;;;;;;19.60;99.90;;;;;;5114950;28;20357;-73
2021/07/24 12:40:15;;;;;;;;;;;19.60;99.90;;;;;;5114963;28;19924;-74
2021/07/24 12:42:42;;;;;;;;;;;19.60;99.90;;;;;;5114866;28;19923;-74
2021/07/24 12:45:14;;;;;;;;;;;19.60;99.90;;;;;;5115083;28;19942;-75
2021/07/24 12:47:41;;;;;;;;;;;19.60;99.90;;;;;;5114307;28;19934;-76
2021/07/24 12:50:15;;;;;;;;;;;19.60;99.90;;;;;;5115484;28;20376;-77
2021/07/24 12:52:46;;;;;;;;;;;19.60;99.90;;;;;;5118600;28;19924;-74
2021/07/24 12:55:14;;;;;;;;;;;19.60;99.90;;;;;;5118678;28;19934;-78
2021/07/24 12:57:41;;;;;;;;;;;19.70;99.90;;;;;;5118965;28;19923;-74
2021/07/24 13:00:10;;;;;;;;;;;19.80;99.90;;;;;;5118626;28;19928;-76
2021/07/24 13:02:39;;;;;;;;;;;19.80;99.90;;;;;;5118803;28;19953;-74
2021/07/24 13:05:06;;;;;;;;;;;19.90;99.90;;;;;;5118640;28;20272;-75
2021/07/24 13:07:34;;;;;;;;;;;19.90;99.90;;;;;;5118729;28;19930;-77
2021/07/24 13:10:01;;;;;;;;;;;20.00;99.90;;;;;;5118644;28;19924;-74
2021/07/24 13:12:28;;;;;;;;;;;20.00;99.90;;;;;;5118447;28;20253;-75
2021/07/24 13:14:55;;;;;;;;;;;20.10;99.90;;;;;;5118357;28;20345;-74
2021/07/24 13:17:24;;;;;;;;;;;20.10;99.90;;;;;;5118345;28;19930;-76
2021/07/24 13:19:51;;;;;;;;;;;20.30;99.90;;;;;;5118279;28;19976;-75
2021/07/24 13:22:18;;;;;;;;;;;20.30;99.90;;;;;;5118293;28;19923;-75
2021/07/24 13:24:44;;;;;;;;;;;20.40;99.90;;;;;;5118141;28;19949;-75
2021/07/24 13:29:55;;;;;;;;;;;20.50;99.90;;;;;;5118277;28;19930;-75
2021/07/24 13:32:24;;;;;;;;;;;20.60;99.90;;;;;;5117433;28;19943;-76
2021/07/24 13:34:50;;;;;;;;;;;20.60;99.90;;;;;;5118329;28;19923;-76
2021/07/24 13:37:22;;;;;;;;;;;20.60;99.90;;;;;;5118115;28;19930;-77
2021/07/24 13:39:49;;;;;;;;;;;20.60;99.90;;;;;;5118268;28;19928;-76
2021/07/24 13:42:15;;;;;;;;;;;20.70;99.90;;;;;;5118167;28;19965;-76
2021/07/24 13:44:42;;;;;;;;;;;20.70;99.90;;;;;;5118096;28;19923;-77
2021/07/24 13:47:09;;;;;;;;;;;20.70;99.90;;;;;;5117698;28;19924;-78
2021/07/24 13:49:46;;;;;;;;;;;20.70;99.90;;;;;;5117725;28;19931;-76
2021/07/24 13:52:13;;;;;;;;;;;20.70;99.90;;;;;;5117498;28;20422;-77
2021/07/24 13:54:41;;;;;;;;;;;20.70;99.90;;;;;;5117614;28;19923;-78
2021/07/24 13:57:09;;;;;;;;;;;20.60;99.90;;;;;;5117803;28;19934;-77
2021/07/24 13:59:38;;;;;;;;;;;20.60;99.90;;;;;;5117711;28;20014;-78
2021/07/24 14:02:06;;;;;;;;;;;20.60;99.90;;;;;;5117266;28;19981;-78
2021/07/24 14:04:34;;;;;;;;;;;20.60;99.90;;;;;;5117685;28;19924;-77
2021/07/24 14:07:04;;;;;;;;;;;20.60;99.90;;;;;;5117489;28;19923;-78
2021/07/24 14:09:32;;;;;;;;;;;20.60;99.90;;;;;;5117806;28;19934;-77
2021/07/24 14:11:58;;;;;;;;;;;20.60;99.90;;;;;;5117470;28;19928;-78
2021/07/24 14:14:27;;;;;;;;;;;20.70;99.90;;;;;;5117056;28;19930;-78
2021/07/24 14:16:53;;;;;;;;;;;20.80;99.90;;;;;;5117406;28;20371;-78
2021/07/24 14:19:20;;;;;;;;;;;20.90;99.90;;;;;;5117321;28;19930;-78
2021/07/24 14:21:47;;;;;;;;;;;21.00;99.90;;;;;;5117136;28;19924;-78
2021/07/24 14:24:15;;;;;;;;;;;21.00;99.90;;;;;;5117106;28;19930;-78